sensor_id;sensor_type;location;lat;lon;timestamp;P1;durP1;ratioP1;P2;durP2;ratioP2
1336;SDS011;662;48.814;9.318;2024-01-27T00:01:22;7.57;;;5.93;;
1336;SDS011;662;48.814;9.318;2024-01-27T00:03:47;7.03;;;5.50;;
1336;SDS011;662;48.814;9.318;2024-01-27T00:06:13;7.83;;;5.70;;
1336;SDS011;662;48.814;9.318;2024-01-27T00:08:39;7.43;;;6.07;;
1336;SDS011;662;48.814;9.318;2024-01-27T00:11:04;11.67;;;6.60;;
1336;SDS011;662;48.814;9.318;2024-01-27T00:13:30;7.57;;;5.57;;
1336;SDS011;662;48.814;9.318;2024-01-27T00:15:55;6.90;;;6.07;;
1336;SDS011;662;48.814;9.318;2024-01-27T00:18:21;9.83;;;6.23;;
1336;SDS011;662;48.814;9.318;2024-01-27T00:20:47;8.03;;;6.50;;
1336;SDS011;662;48.814;9.318;2024-01-27T00:23:12;9.73;;;5.73;;
1336;SDS011;662;48.814;9.318;2024-01-27T00:25:38;7.23;;;6.27;;
1336;SDS011;662;48.814;9.318;2024-01-27T00:28:03;8.93;;;5.93;;
1336;SDS011;662;48.814;9.318;2024-01-27T00:30:29;11.53;;;7.10;;
1336;SDS011;662;48.814;9.318;2024-01-27T00:32:55;6.80;;;5.83;;
1336;SDS011;662;48.814;9.318;2024-01-27T00:35:20;7.53;;;6.40;;
1336;SDS011;662;48.814;9.318;2024-01-27T00:37:47;9.53;;;6.73;;
1336;SDS011;662;48.814;9.318;2024-01-27T00:40:12;8.00;;;7.00;;
1336;SDS011;662;48.814;9.318;2024-01-27T00:42:39;10.70;;;7.67;;
1336;SDS011;662;48.814;9.318;2024-01-27T00:45:06;10.60;;;7.70;;
1336;SDS011;662;48.814;9.318;2024-01-27T00:47:32;9.80;;;6.83;;
1336;SDS011;662;48.814;9.318;2024-01-27T00:49:57;8.77;;;6.60;;
1336;SDS011;662;48.814;9.318;2024-01-27T00:52:23;7.17;;;6.23;;
1336;SDS011;662;48.814;9.318;2024-01-27T00:54:49;8.60;;;7.10;;
1336;SDS011;662;48.814;9.318;2024-01-27T00:57:15;8.87;;;7.40;;
1336;SDS011;662;48.814;9.318;2024-01-27T00:59:41;7.07;;;6.37;;
1336;SDS011;662;48.814;9.318;2024-01-27T01:02:07;10.43;;;7.37;;
1336;SDS011;662;48.814;9.318;2024-01-27T01:04:32;7.67;;;6.60;;
1336;SDS011;662;48.814;9.318;2024-01-27T01:06:58;8.67;;;6.90;;
1336;SDS011;662;48.814;9.318;2024-01-27T01:09:25;9.67;;;6.30;;
1336;SDS011;662;48.814;9.318;2024-01-27T01:11:51;8.50;;;6.87;;
1336;SDS011;662;48.814;9.318;2024-01-27T01:14:16;7.80;;;7.00;;
1336;SDS011;662;48.814;9.318;2024-01-27T01:16:42;7.13;;;6.40;;
1336;SDS011;662;48.814;9.318;2024-01-27T01:19:08;7.70;;;6.90;;
1336;SDS011;662;48.814;9.318;2024-01-27T01:21:33;7.10;;;6.40;;
1336;SDS011;662;48.814;9.318;2024-01-27T01:23:59;8.47;;;7.23;;
1336;SDS011;662;48.814;9.318;2024-01-27T01:26:25;7.10;;;6.40;;
1336;SDS011;662;48.814;9.318;2024-01-27T01:28:50;9.47;;;6.73;;
1336;SDS011;662;48.814;9.318;2024-01-27T01:31:16;7.33;;;6.43;;
1336;SDS011;662;48.814;9.318;2024-01-27T01:33:42;8.10;;;6.70;;
1336;SDS011;662;48.814;9.318;2024-01-27T01:36:08;10.03;;;7.10;;
1336;SDS011;662;48.814;9.318;2024-01-27T01:38:34;8.60;;;6.30;;
1336;SDS011;662;48.814;9.318;2024-01-27T01:40:59;7.70;;;6.90;;
1336;SDS011;662;48.814;9.318;2024-01-27T01:43:25;9.47;;;7.50;;
1336;SDS011;662;48.814;9.318;2024-01-27T01:45:51;10.50;;;7.37;;
1336;SDS011;662;48.814;9.318;2024-01-27T01:48:20;12.37;;;7.60;;
1336;SDS011;662;48.814;9.318;2024-01-27T01:50:46;7.73;;;6.87;;
1336;SDS011;662;48.814;9.318;2024-01-27T01:53:12;7.87;;;7.07;;
1336;SDS011;662;48.814;9.318;2024-01-27T01:55:38;7.50;;;6.73;;
1336;SDS011;662;48.814;9.318;2024-01-27T01:58:05;8.83;;;7.93;;
1336;SDS011;662;48.814;9.318;2024-01-27T02:00:31;9.30;;;8.40;;
1336;SDS011;662;48.814;9.318;2024-01-27T02:02:57;11.33;;;8.30;;
1336;SDS011;662;48.814;9.318;2024-01-27T02:05:23;8.80;;;8.00;;
1336;SDS011;662;48.814;9.318;2024-01-27T02:07:49;12.20;;;8.23;;
1336;SDS011;662;48.814;9.318;2024-01-27T02:10:16;9.33;;;8.20;;
1336;SDS011;662;48.814;9.318;2024-01-27T02:12:46;8.27;;;7.03;;
1336;SDS011;662;48.814;9.318;2024-01-27T02:15:11;7.77;;;6.27;;
1336;SDS011;662;48.814;9.318;2024-01-27T02:17:38;9.50;;;6.70;;
1336;SDS011;662;48.814;9.318;2024-01-27T02:20:05;8.40;;;5.90;;
1336;SDS011;662;48.814;9.318;2024-01-27T02:22:32;6.90;;;6.00;;
1336;SDS011;662;48.814;9.318;2024-01-27T02:25:04;7.70;;;6.57;;
1336;SDS011;662;48.814;9.318;2024-01-27T02:27:30;7.83;;;6.60;;
1336;SDS011;662;48.814;9.318;2024-01-27T02:29:56;7.57;;;6.30;;
1336;SDS011;662;48.814;9.318;2024-01-27T02:32:21;7.00;;;5.97;;
1336;SDS011;662;48.814;9.318;2024-01-27T02:34:47;9.17;;;6.33;;
1336;SDS011;662;48.814;9.318;2024-01-27T02:37:13;10.13;;;6.70;;
1336;SDS011;662;48.814;9.318;2024-01-27T02:39:39;9.03;;;5.67;;
1336;SDS011;662;48.814;9.318;2024-01-27T02:42:05;6.43;;;5.83;;
1336;SDS011;662;48.814;9.318;2024-01-27T02:44:31;7.40;;;6.70;;
1336;SDS011;662;48.814;9.318;2024-01-27T02:46:57;7.30;;;5.60;;
1336;SDS011;662;48.814;9.318;2024-01-27T02:49:22;8.07;;;6.83;;
1336;SDS011;662;48.814;9.318;2024-01-27T02:51:48;9.00;;;6.30;;
1336;SDS011;662;48.814;9.318;2024-01-27T02:54:14;8.87;;;6.03;;
1336;SDS011;662;48.814;9.318;2024-01-27T02:56:40;8.57;;;6.30;;
1336;SDS011;662;48.814;9.318;2024-01-27T02:59:05;8.30;;;6.03;;
1336;SDS011;662;48.814;9.318;2024-01-27T03:01:31;7.93;;;5.90;;
1336;SDS011;662;48.814;9.318;2024-01-27T03:03:57;7.57;;;5.90;;
1336;SDS011;662;48.814;9.318;2024-01-27T03:06:22;7.13;;;5.60;;
1336;SDS011;662;48.814;9.318;2024-01-27T03:08:48;6.63;;;5.93;;
1336;SDS011;662;48.814;9.318;2024-01-27T03:11:13;7.57;;;5.43;;
1336;SDS011;662;48.814;9.318;2024-01-27T03:13:39;5.80;;;4.70;;
1336;SDS011;662;48.814;9.318;2024-01-27T03:16:10;6.57;;;4.90;;
1336;SDS011;662;48.814;9.318;2024-01-27T03:18:36;6.87;;;4.20;;
1336;SDS011;662;48.814;9.318;2024-01-27T03:21:02;6.37;;;4.63;;
1336;SDS011;662;48.814;9.318;2024-01-27T03:23:28;7.77;;;4.60;;
1336;SDS011;662;48.814;9.318;2024-01-27T03:25:54;7.03;;;4.03;;
1336;SDS011;662;48.814;9.318;2024-01-27T03:28:19;4.93;;;4.10;;
1336;SDS011;662;48.814;9.318;2024-01-27T03:30:45;6.30;;;4.37;;
1336;SDS011;662;48.814;9.318;2024-01-27T03:33:11;4.23;;;3.83;;
1336;SDS011;662;48.814;9.318;2024-01-27T03:35:38;5.70;;;3.87;;
1336;SDS011;662;48.814;9.318;2024-01-27T03:38:05;5.03;;;4.20;;
1336;SDS011;662;48.814;9.318;2024-01-27T03:40:31;7.57;;;4.70;;
1336;SDS011;662;48.814;9.318;2024-01-27T03:42:56;4.97;;;4.43;;
1336;SDS011;662;48.814;9.318;2024-01-27T03:45:22;5.20;;;4.57;;
1336;SDS011;662;48.814;9.318;2024-01-27T03:47:48;4.87;;;4.23;;
1336;SDS011;662;48.814;9.318;2024-01-27T03:50:13;6.00;;;4.13;;
1336;SDS011;662;48.814;9.318;2024-01-27T03:52:39;4.53;;;3.53;;
1336;SDS011;662;48.814;9.318;2024-01-27T03:55:06;4.80;;;3.67;;
1336;SDS011;662;48.814;9.318;2024-01-27T03:57:32;5.27;;;3.67;;
1336;SDS011;662;48.814;9.318;2024-01-27T03:59:57;4.90;;;4.13;;
1336;SDS011;662;48.814;9.318;2024-01-27T04:02:23;4.67;;;3.70;;
1336;SDS011;662;48.814;9.318;2024-01-27T04:04:48;4.37;;;3.47;;
1336;SDS011;662;48.814;9.318;2024-01-27T04:07:14;4.00;;;3.60;;
1336;SDS011;662;48.814;9.318;2024-01-27T04:09:40;6.43;;;3.80;;
1336;SDS011;662;48.814;9.318;2024-01-27T04:12:05;4.73;;;3.60;;
1336;SDS011;662;48.814;9.318;2024-01-27T04:14:31;5.50;;;4.13;;
1336;SDS011;662;48.814;9.318;2024-01-27T04:16:57;7.23;;;4.30;;
1336;SDS011;662;48.814;9.318;2024-01-27T04:19:22;7.23;;;4.60;;
1336;SDS011;662;48.814;9.318;2024-01-27T04:21:48;5.97;;;5.23;;
1336;SDS011;662;48.814;9.318;2024-01-27T04:24:13;5.90;;;5.33;;
1336;SDS011;662;48.814;9.318;2024-01-27T04:26:39;10.70;;;7.70;;
1336;SDS011;662;48.814;9.318;2024-01-27T04:29:05;8.83;;;7.70;;
1336;SDS011;662;48.814;9.318;2024-01-27T04:31:30;7.80;;;7.10;;
1336;SDS011;662;48.814;9.318;2024-01-27T04:33:56;6.63;;;5.90;;
1336;SDS011;662;48.814;9.318;2024-01-27T04:36:29;6.80;;;6.23;;
1336;SDS011;662;48.814;9.318;2024-01-27T04:38:55;6.90;;;6.30;;
1336;SDS011;662;48.814;9.318;2024-01-27T04:41:21;8.20;;;6.60;;
1336;SDS011;662;48.814;9.318;2024-01-27T04:43:46;6.57;;;5.97;;
1336;SDS011;662;48.814;9.318;2024-01-27T04:46:12;6.63;;;6.03;;
1336;SDS011;662;48.814;9.318;2024-01-27T04:48:37;6.67;;;6.07;;
1336;SDS011;662;48.814;9.318;2024-01-27T04:51:03;6.80;;;6.20;;
1336;SDS011;662;48.814;9.318;2024-01-27T04:53:29;6.83;;;5.30;;
1336;SDS011;662;48.814;9.318;2024-01-27T04:55:54;6.07;;;5.47;;
1336;SDS011;662;48.814;9.318;2024-01-27T04:58:20;6.60;;;5.83;;
1336;SDS011;662;48.814;9.318;2024-01-27T05:00:46;5.70;;;5.30;;
1336;SDS011;662;48.814;9.318;2024-01-27T05:03:11;7.67;;;6.93;;
1336;SDS011;662;48.814;9.318;2024-01-27T05:05:42;7.23;;;6.17;;
1336;SDS011;662;48.814;9.318;2024-01-27T05:08:08;7.10;;;6.30;;
1336;SDS011;662;48.814;9.318;2024-01-27T05:10:34;9.43;;;5.80;;
1336;SDS011;662;48.814;9.318;2024-01-27T05:13:01;6.17;;;5.70;;
1336;SDS011;662;48.814;9.318;2024-01-27T05:15:27;6.37;;;5.83;;
1336;SDS011;662;48.814;9.318;2024-01-27T05:17:52;6.70;;;6.10;;
1336;SDS011;662;48.814;9.318;2024-01-27T05:20:18;6.17;;;5.67;;
1336;SDS011;662;48.814;9.318;2024-01-27T05:22:44;7.27;;;6.57;;
1336;SDS011;662;48.814;9.318;2024-01-27T05:25:10;7.00;;;6.17;;
1336;SDS011;662;48.814;9.318;2024-01-27T05:27:37;6.47;;;5.87;;
1336;SDS011;662;48.814;9.318;2024-01-27T05:30:03;7.30;;;6.70;;
1336;SDS011;662;48.814;9.318;2024-01-27T05:32:30;6.20;;;5.73;;
1336;SDS011;662;48.814;9.318;2024-01-27T05:34:56;7.37;;;6.67;;
1336;SDS011;662;48.814;9.318;2024-01-27T05:37:22;7.37;;;6.67;;
1336;SDS011;662;48.814;9.318;2024-01-27T05:39:47;8.20;;;6.90;;
1336;SDS011;662;48.814;9.318;2024-01-27T05:42:13;7.10;;;5.93;;
1336;SDS011;662;48.814;9.318;2024-01-27T05:44:38;6.17;;;5.60;;
1336;SDS011;662;48.814;9.318;2024-01-27T05:47:05;6.00;;;5.50;;
1336;SDS011;662;48.814;9.318;2024-01-27T05:49:31;6.10;;;5.60;;
1336;SDS011;662;48.814;9.318;2024-01-27T05:51:57;7.00;;;6.30;;
1336;SDS011;662;48.814;9.318;2024-01-27T05:54:23;6.30;;;5.80;;
1336;SDS011;662;48.814;9.318;2024-01-27T05:56:49;6.07;;;5.57;;
1336;SDS011;662;48.814;9.318;2024-01-27T05:59:15;6.27;;;5.67;;
1336;SDS011;662;48.814;9.318;2024-01-27T06:01:40;7.43;;;6.73;;
1336;SDS011;662;48.814;9.318;2024-01-27T06:04:08;6.53;;;5.97;;
1336;SDS011;662;48.814;9.318;2024-01-27T06:06:34;6.60;;;5.90;;
1336;SDS011;662;48.814;9.318;2024-01-27T06:08:59;7.00;;;6.40;;
1336;SDS011;662;48.814;9.318;2024-01-27T06:11:25;9.03;;;6.70;;
1336;SDS011;662;48.814;9.318;2024-01-27T06:13:51;6.80;;;6.13;;
1336;SDS011;662;48.814;9.318;2024-01-27T06:16:20;7.20;;;6.50;;
1336;SDS011;662;48.814;9.318;2024-01-27T06:18:48;7.50;;;6.80;;
1336;SDS011;662;48.814;9.318;2024-01-27T06:21:14;14.87;;;8.20;;
1336;SDS011;662;48.814;9.318;2024-01-27T06:23:40;12.53;;;7.73;;
1336;SDS011;662;48.814;9.318;2024-01-27T06:26:06;7.80;;;7.00;;
1336;SDS011;662;48.814;9.318;2024-01-27T06:28:36;11.70;;;6.60;;
1336;SDS011;662;48.814;9.318;2024-01-27T06:31:05;6.73;;;6.13;;
1336;SDS011;662;48.814;9.318;2024-01-27T06:33:36;11.57;;;6.47;;
1336;SDS011;662;48.814;9.318;2024-01-27T06:36:02;7.17;;;6.43;;
1336;SDS011;662;48.814;9.318;2024-01-27T06:38:37;9.50;;;6.10;;
1336;SDS011;662;48.814;9.318;2024-01-27T06:41:03;7.13;;;6.23;;
1336;SDS011;662;48.814;9.318;2024-01-27T06:43:29;6.70;;;6.10;;
1336;SDS011;662;48.814;9.318;2024-01-27T06:45:57;8.20;;;6.10;;
1336;SDS011;662;48.814;9.318;2024-01-27T06:48:23;6.60;;;5.83;;
1336;SDS011;662;48.814;9.318;2024-01-27T06:50:52;6.90;;;6.23;;
1336;SDS011;662;48.814;9.318;2024-01-27T06:53:20;7.27;;;6.53;;
1336;SDS011;662;48.814;9.318;2024-01-27T06:55:46;7.07;;;6.47;;
1336;SDS011;662;48.814;9.318;2024-01-27T06:58:12;7.20;;;6.60;;
1336;SDS011;662;48.814;9.318;2024-01-27T07:00:38;10.47;;;7.80;;
1336;SDS011;662;48.814;9.318;2024-01-27T07:03:03;7.50;;;6.80;;
1336;SDS011;662;48.814;9.318;2024-01-27T07:05:29;7.20;;;6.50;;
1336;SDS011;662;48.814;9.318;2024-01-27T07:07:58;6.93;;;6.33;;
1336;SDS011;662;48.814;9.318;2024-01-27T07:10:23;6.47;;;5.83;;
1336;SDS011;662;48.814;9.318;2024-01-27T07:12:49;7.60;;;6.17;;
1336;SDS011;662;48.814;9.318;2024-01-27T07:15:14;6.90;;;6.30;;
1336;SDS011;662;48.814;9.318;2024-01-27T07:17:40;6.27;;;5.70;;
1336;SDS011;662;48.814;9.318;2024-01-27T07:20:06;6.50;;;6.00;;
1336;SDS011;662;48.814;9.318;2024-01-27T07:22:33;7.43;;;6.73;;
1336;SDS011;662;48.814;9.318;2024-01-27T07:24:58;7.73;;;6.93;;
1336;SDS011;662;48.814;9.318;2024-01-27T07:27:27;9.70;;;7.70;;
1336;SDS011;662;48.814;9.318;2024-01-27T07:29:55;7.43;;;6.50;;
1336;SDS011;662;48.814;9.318;2024-01-27T07:32:27;14.00;;;6.43;;
1336;SDS011;662;48.814;9.318;2024-01-27T07:34:53;28.40;;;7.30;;
1336;SDS011;662;48.814;9.318;2024-01-27T07:37:18;14.90;;;6.57;;
1336;SDS011;662;48.814;9.318;2024-01-27T07:39:46;22.20;;;7.17;;
1336;SDS011;662;48.814;9.318;2024-01-27T07:42:14;34.67;;;7.50;;
1336;SDS011;662;48.814;9.318;2024-01-27T07:44:40;11.60;;;6.97;;
1336;SDS011;662;48.814;9.318;2024-01-27T07:47:07;6.57;;;5.87;;
1336;SDS011;662;48.814;9.318;2024-01-27T07:49:36;14.00;;;7.53;;
1336;SDS011;662;48.814;9.318;2024-01-27T07:52:04;7.70;;;7.00;;
1336;SDS011;662;48.814;9.318;2024-01-27T07:54:30;14.03;;;6.90;;
1336;SDS011;662;48.814;9.318;2024-01-27T07:56:57;28.17;;;7.20;;
1336;SDS011;662;48.814;9.318;2024-01-27T07:59:23;18.17;;;7.80;;
1336;SDS011;662;48.814;9.318;2024-01-27T08:01:49;15.63;;;8.33;;
1336;SDS011;662;48.814;9.318;2024-01-27T08:04:15;13.30;;;9.43;;
1336;SDS011;662;48.814;9.318;2024-01-27T08:06:48;10.43;;;8.60;;
1336;SDS011;662;48.814;9.318;2024-01-27T08:09:15;9.07;;;8.20;;
1336;SDS011;662;48.814;9.318;2024-01-27T08:11:42;10.93;;;8.30;;
1336;SDS011;662;48.814;9.318;2024-01-27T08:14:07;8.50;;;7.70;;
1336;SDS011;662;48.814;9.318;2024-01-27T08:16:33;9.50;;;7.60;;
1336;SDS011;662;48.814;9.318;2024-01-27T08:18:59;8.13;;;7.33;;
1336;SDS011;662;48.814;9.318;2024-01-27T08:21:25;8.00;;;7.20;;
1336;SDS011;662;48.814;9.318;2024-01-27T08:23:53;8.20;;;7.23;;
1336;SDS011;662;48.814;9.318;2024-01-27T08:26:20;10.83;;;7.13;;
1336;SDS011;662;48.814;9.318;2024-01-27T08:28:46;12.10;;;7.57;;
1336;SDS011;662;48.814;9.318;2024-01-27T08:31:12;9.00;;;8.10;;
1336;SDS011;662;48.814;9.318;2024-01-27T08:33:38;17.33;;;9.93;;
1336;SDS011;662;48.814;9.318;2024-01-27T08:36:04;8.93;;;7.93;;
1336;SDS011;662;48.814;9.318;2024-01-27T08:38:29;27.80;;;7.93;;
1336;SDS011;662;48.814;9.318;2024-01-27T08:40:55;10.10;;;8.33;;
1336;SDS011;662;48.814;9.318;2024-01-27T08:43:21;13.73;;;8.10;;
1336;SDS011;662;48.814;9.318;2024-01-27T08:45:46;15.83;;;8.00;;
1336;SDS011;662;48.814;9.318;2024-01-27T08:48:12;10.23;;;8.00;;
1336;SDS011;662;48.814;9.318;2024-01-27T08:50:38;11.33;;;7.93;;
1336;SDS011;662;48.814;9.318;2024-01-27T08:53:04;11.83;;;8.30;;
1336;SDS011;662;48.814;9.318;2024-01-27T08:55:30;10.67;;;8.27;;
1336;SDS011;662;48.814;9.318;2024-01-27T08:57:56;10.40;;;8.63;;
1336;SDS011;662;48.814;9.318;2024-01-27T09:00:22;10.07;;;8.63;;
1336;SDS011;662;48.814;9.318;2024-01-27T09:02:48;18.00;;;8.77;;
1336;SDS011;662;48.814;9.318;2024-01-27T09:05:13;21.40;;;8.60;;
1336;SDS011;662;48.814;9.318;2024-01-27T09:07:39;11.57;;;8.70;;
1336;SDS011;662;48.814;9.318;2024-01-27T09:10:08;9.50;;;8.50;;
1336;SDS011;662;48.814;9.318;2024-01-27T09:12:37;9.20;;;8.30;;
1336;SDS011;662;48.814;9.318;2024-01-27T09:15:03;9.70;;;8.73;;
1336;SDS011;662;48.814;9.318;2024-01-27T09:17:29;9.77;;;8.17;;
1336;SDS011;662;48.814;9.318;2024-01-27T09:19:58;11.03;;;9.83;;
1336;SDS011;662;48.814;9.318;2024-01-27T09:22:24;9.10;;;8.00;;
1336;SDS011;662;48.814;9.318;2024-01-27T09:24:52;10.60;;;7.97;;
1336;SDS011;662;48.814;9.318;2024-01-27T09:27:18;11.80;;;9.33;;
1336;SDS011;662;48.814;9.318;2024-01-27T09:29:43;9.80;;;8.80;;
1336;SDS011;662;48.814;9.318;2024-01-27T09:32:09;9.40;;;8.50;;
1336;SDS011;662;48.814;9.318;2024-01-27T09:34:35;10.07;;;8.93;;
1336;SDS011;662;48.814;9.318;2024-01-27T09:37:01;11.60;;;8.90;;
1336;SDS011;662;48.814;9.318;2024-01-27T09:39:27;10.40;;;8.80;;
1336;SDS011;662;48.814;9.318;2024-01-27T09:41:53;12.70;;;10.07;;
1336;SDS011;662;48.814;9.318;2024-01-27T09:44:20;15.83;;;9.40;;
1336;SDS011;662;48.814;9.318;2024-01-27T09:46:46;12.33;;;10.10;;
1336;SDS011;662;48.814;9.318;2024-01-27T09:49:13;13.10;;;10.10;;
1336;SDS011;662;48.814;9.318;2024-01-27T09:51:42;11.80;;;10.40;;
1336;SDS011;662;48.814;9.318;2024-01-27T09:54:08;11.63;;;10.23;;
1336;SDS011;662;48.814;9.318;2024-01-27T09:56:34;10.37;;;9.20;;
1336;SDS011;662;48.814;9.318;2024-01-27T09:59:00;11.70;;;10.00;;
1336;SDS011;662;48.814;9.318;2024-01-27T10:01:26;11.10;;;9.93;;
1336;SDS011;662;48.814;9.318;2024-01-27T10:03:53;12.87;;;10.07;;
1336;SDS011;662;48.814;9.318;2024-01-27T10:06:20;13.07;;;10.37;;
1336;SDS011;662;48.814;9.318;2024-01-27T10:08:55;16.63;;;11.97;;
1336;SDS011;662;48.814;9.318;2024-01-27T10:11:21;13.40;;;11.73;;
1336;SDS011;662;48.814;9.318;2024-01-27T10:13:57;16.50;;;13.40;;
1336;SDS011;662;48.814;9.318;2024-01-27T10:16:26;11.73;;;10.33;;
1336;SDS011;662;48.814;9.318;2024-01-27T10:18:59;12.50;;;9.50;;
1336;SDS011;662;48.814;9.318;2024-01-27T10:21:26;13.07;;;9.87;;
1336;SDS011;662;48.814;9.318;2024-01-27T10:23:52;13.30;;;9.27;;
1336;SDS011;662;48.814;9.318;2024-01-27T10:26:18;10.87;;;8.90;;
1336;SDS011;662;48.814;9.318;2024-01-27T10:28:51;11.27;;;9.73;;
1336;SDS011;662;48.814;9.318;2024-01-27T10:31:18;11.40;;;8.20;;
1336;SDS011;662;48.814;9.318;2024-01-27T10:33:51;11.27;;;8.40;;
1336;SDS011;662;48.814;9.318;2024-01-27T10:36:18;11.90;;;9.13;;
1336;SDS011;662;48.814;9.318;2024-01-27T10:38:44;12.90;;;8.90;;
1336;SDS011;662;48.814;9.318;2024-01-27T10:41:10;14.80;;;9.13;;
1336;SDS011;662;48.814;9.318;2024-01-27T10:43:36;10.40;;;8.20;;
1336;SDS011;662;48.814;9.318;2024-01-27T10:46:05;11.37;;;7.93;;
1336;SDS011;662;48.814;9.318;2024-01-27T10:48:33;12.10;;;8.70;;
1336;SDS011;662;48.814;9.318;2024-01-27T10:51:02;10.33;;;8.17;;
1336;SDS011;662;48.814;9.318;2024-01-27T10:53:35;11.57;;;8.57;;
1336;SDS011;662;48.814;9.318;2024-01-27T10:56:03;10.33;;;8.07;;
1336;SDS011;662;48.814;9.318;2024-01-27T10:58:32;9.97;;;8.30;;
1336;SDS011;662;48.814;9.318;2024-01-27T11:01:05;10.53;;;7.03;;
1336;SDS011;662;48.814;9.318;2024-01-27T11:03:39;11.30;;;7.77;;
1336;SDS011;662;48.814;9.318;2024-01-27T11:06:05;12.00;;;7.40;;
1336;SDS011;662;48.814;9.318;2024-01-27T11:08:32;10.03;;;8.10;;
1336;SDS011;662;48.814;9.318;2024-01-27T11:10:59;10.97;;;8.63;;
1336;SDS011;662;48.814;9.318;2024-01-27T11:13:27;14.93;;;7.10;;
1336;SDS011;662;48.814;9.318;2024-01-27T11:15:55;11.40;;;7.83;;
1336;SDS011;662;48.814;9.318;2024-01-27T11:18:21;11.50;;;7.50;;
1336;SDS011;662;48.814;9.318;2024-01-27T11:20:47;12.23;;;7.67;;
1336;SDS011;662;48.814;9.318;2024-01-27T11:23:13;15.20;;;7.83;;
1336;SDS011;662;48.814;9.318;2024-01-27T11:25:39;14.80;;;8.13;;
1336;SDS011;662;48.814;9.318;2024-01-27T11:28:12;11.33;;;8.00;;
1336;SDS011;662;48.814;9.318;2024-01-27T11:30:39;10.07;;;8.13;;
1336;SDS011;662;48.814;9.318;2024-01-27T11:33:13;10.30;;;6.77;;
1336;SDS011;662;48.814;9.318;2024-01-27T11:35:39;13.30;;;7.00;;
1336;SDS011;662;48.814;9.318;2024-01-27T11:38:04;11.37;;;6.83;;
1336;SDS011;662;48.814;9.318;2024-01-27T11:40:30;8.90;;;5.23;;
1336;SDS011;662;48.814;9.318;2024-01-27T11:42:57;7.33;;;5.30;;
1336;SDS011;662;48.814;9.318;2024-01-27T11:45:26;10.43;;;5.50;;
1336;SDS011;662;48.814;9.318;2024-01-27T11:47:54;16.33;;;5.90;;
1336;SDS011;662;48.814;9.318;2024-01-27T11:50:21;10.43;;;5.60;;
1336;SDS011;662;48.814;9.318;2024-01-27T11:52:47;10.70;;;5.40;;
1336;SDS011;662;48.814;9.318;2024-01-27T11:55:13;9.07;;;5.27;;
1336;SDS011;662;48.814;9.318;2024-01-27T11:57:40;12.10;;;5.33;;
1336;SDS011;662;48.814;9.318;2024-01-27T12:00:07;10.97;;;5.40;;
1336;SDS011;662;48.814;9.318;2024-01-27T12:02:34;9.17;;;5.70;;
1336;SDS011;662;48.814;9.318;2024-01-27T12:05:00;9.73;;;5.30;;
1336;SDS011;662;48.814;9.318;2024-01-27T12:07:26;6.83;;;4.80;;
1336;SDS011;662;48.814;9.318;2024-01-27T12:09:52;8.07;;;5.43;;
1336;SDS011;662;48.814;9.318;2024-01-27T12:12:18;8.63;;;5.93;;
1336;SDS011;662;48.814;9.318;2024-01-27T12:14:45;10.57;;;5.90;;
1336;SDS011;662;48.814;9.318;2024-01-27T12:17:12;11.67;;;5.60;;
1336;SDS011;662;48.814;9.318;2024-01-27T12:19:38;8.00;;;5.03;;
1336;SDS011;662;48.814;9.318;2024-01-27T12:22:04;9.70;;;5.80;;
1336;SDS011;662;48.814;9.318;2024-01-27T12:24:45;9.13;;;5.43;;
1336;SDS011;662;48.814;9.318;2024-01-27T12:27:10;6.00;;;5.07;;
1336;SDS011;662;48.814;9.318;2024-01-27T12:29:36;10.10;;;5.33;;
1336;SDS011;662;48.814;9.318;2024-01-27T12:32:02;6.13;;;4.83;;
1336;SDS011;662;48.814;9.318;2024-01-27T12:34:27;9.73;;;7.20;;
1336;SDS011;662;48.814;9.318;2024-01-27T12:36:54;7.50;;;5.07;;
1336;SDS011;662;48.814;9.318;2024-01-27T12:39:20;6.37;;;4.37;;
1336;SDS011;662;48.814;9.318;2024-01-27T12:41:46;4.83;;;4.20;;
1336;SDS011;662;48.814;9.318;2024-01-27T12:44:11;7.30;;;5.20;;
1336;SDS011;662;48.814;9.318;2024-01-27T12:46:37;10.13;;;5.00;;
1336;SDS011;662;48.814;9.318;2024-01-27T12:49:03;7.00;;;5.20;;
1336;SDS011;662;48.814;9.318;2024-01-27T12:51:30;10.00;;;5.03;;
1336;SDS011;662;48.814;9.318;2024-01-27T12:53:56;5.43;;;4.93;;
1336;SDS011;662;48.814;9.318;2024-01-27T12:56:22;8.57;;;5.13;;
1336;SDS011;662;48.814;9.318;2024-01-27T12:58:48;7.23;;;4.40;;
1336;SDS011;662;48.814;9.318;2024-01-27T13:01:14;6.90;;;4.60;;
1336;SDS011;662;48.814;9.318;2024-01-27T13:03:40;7.17;;;4.70;;
1336;SDS011;662;48.814;9.318;2024-01-27T13:06:06;4.43;;;3.70;;
1336;SDS011;662;48.814;9.318;2024-01-27T13:08:31;16.47;;;4.53;;
1336;SDS011;662;48.814;9.318;2024-01-27T13:10:57;6.20;;;3.93;;
1336;SDS011;662;48.814;9.318;2024-01-27T13:13:24;4.43;;;3.87;;
1336;SDS011;662;48.814;9.318;2024-01-27T13:15:49;7.87;;;4.30;;
1336;SDS011;662;48.814;9.318;2024-01-27T13:18:15;4.40;;;3.20;;
1336;SDS011;662;48.814;9.318;2024-01-27T13:20:40;5.10;;;4.00;;
1336;SDS011;662;48.814;9.318;2024-01-27T13:23:06;5.60;;;3.70;;
1336;SDS011;662;48.814;9.318;2024-01-27T13:25:32;5.90;;;3.73;;
1336;SDS011;662;48.814;9.318;2024-01-27T13:27:58;8.87;;;3.77;;
1336;SDS011;662;48.814;9.318;2024-01-27T13:30:24;8.00;;;3.73;;
1336;SDS011;662;48.814;9.318;2024-01-27T13:32:50;5.17;;;3.20;;
1336;SDS011;662;48.814;9.318;2024-01-27T13:35:16;11.53;;;5.60;;
1336;SDS011;662;48.814;9.318;2024-01-27T13:37:41;10.23;;;4.10;;
1336;SDS011;662;48.814;9.318;2024-01-27T13:40:07;8.50;;;4.07;;
1336;SDS011;662;48.814;9.318;2024-01-27T13:42:35;9.27;;;4.30;;
1336;SDS011;662;48.814;9.318;2024-01-27T13:45:01;10.13;;;3.77;;
1336;SDS011;662;48.814;9.318;2024-01-27T13:47:27;8.03;;;4.20;;
1336;SDS011;662;48.814;9.318;2024-01-27T13:49:53;9.83;;;3.73;;
1336;SDS011;662;48.814;9.318;2024-01-27T13:52:19;6.30;;;3.57;;
1336;SDS011;662;48.814;9.318;2024-01-27T13:54:44;7.40;;;4.60;;
1336;SDS011;662;48.814;9.318;2024-01-27T13:57:10;9.27;;;3.10;;
1336;SDS011;662;48.814;9.318;2024-01-27T13:59:36;6.77;;;2.50;;
1336;SDS011;662;48.814;9.318;2024-01-27T14:02:02;5.80;;;3.33;;
1336;SDS011;662;48.814;9.318;2024-01-27T14:04:28;3.83;;;3.20;;
1336;SDS011;662;48.814;9.318;2024-01-27T14:06:54;5.70;;;3.17;;
1336;SDS011;662;48.814;9.318;2024-01-27T14:09:21;5.17;;;3.20;;
1336;SDS011;662;48.814;9.318;2024-01-27T14:11:47;4.40;;;2.97;;
1336;SDS011;662;48.814;9.318;2024-01-27T14:14:13;6.70;;;2.37;;
1336;SDS011;662;48.814;9.318;2024-01-27T14:16:38;4.17;;;2.60;;
1336;SDS011;662;48.814;9.318;2024-01-27T14:19:05;3.70;;;2.40;;
1336;SDS011;662;48.814;9.318;2024-01-27T14:21:31;3.43;;;2.40;;
1336;SDS011;662;48.814;9.318;2024-01-27T14:23:57;4.10;;;2.47;;
1336;SDS011;662;48.814;9.318;2024-01-27T14:26:28;5.27;;;2.13;;
1336;SDS011;662;48.814;9.318;2024-01-27T14:28:54;5.43;;;2.80;;
1336;SDS011;662;48.814;9.318;2024-01-27T14:31:21;5.90;;;3.00;;
1336;SDS011;662;48.814;9.318;2024-01-27T14:33:47;4.73;;;2.37;;
1336;SDS011;662;48.814;9.318;2024-01-27T14:36:13;2.80;;;2.33;;
1336;SDS011;662;48.814;9.318;2024-01-27T14:38:39;6.73;;;2.70;;
1336;SDS011;662;48.814;9.318;2024-01-27T14:41:06;4.30;;;2.40;;
1336;SDS011;662;48.814;9.318;2024-01-27T14:43:37;5.93;;;2.53;;
1336;SDS011;662;48.814;9.318;2024-01-27T14:46:03;3.80;;;3.03;;
1336;SDS011;662;48.814;9.318;2024-01-27T14:48:30;9.23;;;3.17;;
1336;SDS011;662;48.814;9.318;2024-01-27T14:50:56;3.30;;;2.47;;
1336;SDS011;662;48.814;9.318;2024-01-27T14:53:27;6.70;;;2.70;;
1336;SDS011;662;48.814;9.318;2024-01-27T14:55:54;4.23;;;2.40;;
1336;SDS011;662;48.814;9.318;2024-01-27T14:58:23;5.50;;;2.10;;
1336;SDS011;662;48.814;9.318;2024-01-27T15:00:48;8.73;;;2.87;;
1336;SDS011;662;48.814;9.318;2024-01-27T15:03:20;3.77;;;2.40;;
1336;SDS011;662;48.814;9.318;2024-01-27T15:05:47;3.77;;;2.07;;
1336;SDS011;662;48.814;9.318;2024-01-27T15:08:14;5.23;;;2.57;;
1336;SDS011;662;48.814;9.318;2024-01-27T15:10:40;4.27;;;2.70;;
1336;SDS011;662;48.814;9.318;2024-01-27T15:13:08;3.73;;;2.63;;
1336;SDS011;662;48.814;9.318;2024-01-27T15:15:35;3.10;;;2.80;;
1336;SDS011;662;48.814;9.318;2024-01-27T15:18:01;5.47;;;2.90;;
1336;SDS011;662;48.814;9.318;2024-01-27T15:20:27;3.73;;;2.70;;